createdAt,value
2022-08-03T00:04:33.925Z,42.16
2022-08-03T00:09:35.745Z,41.99
2022-08-03T00:14:32.707Z,42.08
2022-08-03T00:19:29.538Z,42.04
2022-08-03T00:24:26.767Z,42.15
2022-08-03T00:29:23.378Z,42.38
2022-08-03T00:34:22.472Z,42.33
2022-08-03T00:39:34.042Z,41.97
2022-08-03T00:44:32.079Z,42.14
2022-08-03T00:49:28.914Z,41.98
2022-08-03T00:54:25.638Z,42.42
2022-08-03T00:59:23.108Z,42.27
2022-08-03T01:04:19.743Z,42.57
2022-08-03T01:09:19.710Z,42.79
2022-08-03T01:14:20.778Z,43.79
2022-08-03T01:19:29.276Z,43.10
2022-08-03T01:24:32.724Z,43.70
2022-08-03T01:29:50.283Z,43.63
2022-08-03T01:34:48.542Z,43.86
2022-08-03T01:39:45.244Z,44.11
2022-08-03T01:44:43.871Z,43.62
2022-08-03T01:49:44.001Z,43.27
2022-08-03T01:54:43.181Z,43.92
2022-08-03T01:59:40.109Z,44.18
2022-08-03T02:04:39.988Z,44.02
2022-08-03T02:09:38.807Z,44.08
2022-08-03T02:14:35.753Z,43.58
2022-08-03T02:19:35.781Z,44.70
2022-08-03T02:24:32.604Z,44.07
2022-08-03T02:29:39.103Z,43.65
2022-08-03T02:34:37.654Z,43.30
2022-08-03T02:39:35.584Z,43.95
2022-08-03T02:44:33.503Z,43.57
2022-08-03T02:49:40.953Z,42.90
2022-08-03T02:54:49.084Z,42.68
2022-08-03T02:59:47.000Z,43.28
2022-08-03T03:05:52.906Z,43.07
2022-08-03T03:10:01.634Z,45.62
2022-08-03T03:14:59.048Z,44.64
2022-08-03T03:19:56.573Z,42.45
2022-08-03T03:24:54.489Z,42.86
2022-08-03T03:29:51.579Z,43.25
2022-08-03T03:34:49.303Z,43.14
2022-08-03T03:39:47.846Z,42.69
2022-08-03T03:44:44.555Z,45.83
2022-08-03T03:49:42.293Z,46.37
2022-08-03T03:54:40.699Z,47.39
2022-08-03T03:59:37.804Z,44.29
2022-08-03T04:04:52.684Z,41.99
2022-08-03T04:10:14.559Z,42.11
2022-08-03T04:15:12.880Z,42.23
2022-08-03T04:20:10.830Z,42.70
2022-08-03T04:25:10.476Z,42.75
2022-08-03T04:30:08.749Z,42.19
2022-08-03T04:35:06.404Z,42.11
2022-08-03T04:40:05.936Z,41.87
2022-08-03T04:45:05.796Z,41.87
2022-08-03T04:50:03.498Z,41.82
2022-08-03T04:55:00.480Z,41.68
2022-08-03T05:00:02.539Z,41.48
2022-08-03T05:05:00.759Z,41.29
2022-08-03T05:10:01.823Z,41.31
2022-08-03T05:15:00.166Z,41.19
2022-08-03T05:19:56.736Z,41.47
2022-08-03T05:24:54.070Z,41.12
2022-08-03T05:29:53.795Z,40.23
2022-08-03T05:34:50.395Z,40.02
2022-08-03T05:39:47.110Z,39.63
2022-08-03T05:44:44.496Z,39.15
2022-08-03T05:49:41.402Z,38.85
2022-08-03T05:54:55.834Z,38.73
2022-08-03T05:59:57.922Z,38.16
2022-08-03T06:04:55.462Z,37.64
2022-08-03T06:10:33.952Z,37.98
2022-08-03T06:15:11.448Z,40.01
2022-08-03T06:20:09.008Z,41.95
2022-08-03T06:25:09.160Z,41.91
2022-08-03T06:30:09.957Z,42.63
2022-08-03T06:35:09.501Z,38.33
2022-08-03T06:40:06.603Z,37.62
2022-08-03T06:45:03.746Z,38.12
2022-08-03T06:50:14.354Z,37.17
2022-08-03T06:55:14.353Z,37.82
2022-08-03T07:00:12.371Z,41.30
2022-08-03T07:05:10.300Z,37.71
2022-08-03T07:10:07.620Z,36.28
2022-08-03T07:15:05.769Z,36.80
2022-08-03T07:20:04.334Z,36.40
2022-08-03T07:25:01.164Z,39.24
2022-08-03T07:29:58.648Z,40.26
2022-08-03T07:35:00.503Z,38.59
2022-08-03T07:39:58.305Z,38.66
2022-08-03T07:44:55.213Z,38.66
2022-08-03T07:49:52.211Z,37.36
2022-08-03T07:54:49.612Z,39.85
2022-08-03T07:59:59.590Z,40.54
2022-08-03T08:05:10.519Z,39.34
2022-08-03T08:10:09.926Z,38.60
2022-08-03T08:15:07.886Z,36.95
2022-08-03T08:20:05.849Z,37.20
2022-08-03T08:25:05.399Z,36.72
2022-08-03T08:30:11.434Z,37.05
2022-08-03T08:35:10.422Z,36.52
2022-08-03T08:40:07.971Z,36.36
2022-08-03T08:45:08.155Z,36.43
2022-08-03T08:50:10.460Z,37.31
2022-08-03T08:55:24.847Z,37.87
2022-08-03T09:00:22.343Z,37.69
2022-08-03T09:05:27.823Z,37.48
2022-08-03T09:10:36.855Z,36.39
2022-08-03T09:15:35.033Z,35.62
2022-08-03T09:20:32.735Z,36.54
2022-08-03T09:25:30.765Z,35.82
2022-08-03T09:30:33.352Z,35.60
2022-08-03T09:35:53.003Z,34.85
2022-08-03T09:40:50.092Z,34.14
2022-08-03T09:45:48.166Z,34.92
2022-08-03T09:50:58.822Z,33.94
2022-08-03T09:56:34.516Z,33.94
2022-08-03T10:01:32.506Z,33.86
2022-08-03T10:06:30.204Z,33.85
2022-08-03T10:11:29.829Z,32.66
2022-08-03T10:16:29.490Z,31.79
2022-08-03T10:21:27.511Z,32.63
2022-08-03T10:26:25.372Z,33.14
2022-08-03T10:31:23.231Z,32.62
2022-08-03T10:36:22.978Z,32.33
2022-08-03T10:41:20.504Z,32.64
2022-08-03T10:46:19.665Z,31.93
2022-08-03T10:51:16.801Z,31.14
2022-08-03T10:56:49.830Z,30.96
2022-08-03T11:01:58.297Z,30.43
2022-08-03T11:07:16.000Z,30.34
2022-08-03T11:12:21.323Z,32.70
2022-08-03T11:17:27.473Z,31.84
2022-08-03T11:22:24.820Z,30.84
2022-08-03T11:27:22.972Z,30.75
2022-08-03T11:32:34.883Z,30.90
2022-08-03T11:37:33.459Z,30.08
2022-08-03T11:42:42.777Z,29.90
2022-08-03T11:47:50.846Z,29.93
2022-08-03T11:52:50.752Z,30.79
2022-08-03T11:59:01.688Z,30.92
2022-08-03T12:03:07.746Z,30.91
2022-08-03T12:08:07.042Z,30.55
2022-08-03T12:13:56.623Z,29.91
2022-08-03T12:18:24.492Z,29.42
2022-08-03T12:23:22.042Z,28.66
2022-08-03T12:28:37.413Z,28.53
2022-08-03T12:33:49.938Z,27.92
2022-08-03T12:38:54.697Z,27.83
2022-08-03T12:43:51.635Z,27.04
2022-08-03T12:49:05.852Z,26.49
2022-08-03T12:54:05.213Z,26.53
2022-08-03T12:59:22.064Z,28.98
2022-08-03T13:04:25.945Z,28.57
2022-08-03T13:09:26.386Z,28.29
2022-08-03T13:14:23.712Z,28.02
2022-08-03T13:19:22.606Z,26.89
2022-08-03T13:24:19.430Z,26.91
2022-08-03T13:29:17.082Z,27.00
2022-08-03T13:34:13.834Z,26.71
2022-08-03T13:39:10.460Z,25.74
2022-08-03T13:44:28.303Z,25.68
2022-08-03T13:49:27.043Z,24.95
2022-08-03T13:54:24.495Z,25.44
2022-08-03T13:59:21.230Z,25.05
2022-08-03T14:04:22.127Z,24.55
2022-08-03T14:09:19.952Z,25.00
2022-08-03T14:14:16.649Z,26.47
2022-08-03T14:19:15.287Z,26.87
2022-08-03T14:24:12.389Z,24.85
2022-08-03T14:29:09.829Z,24.19
2022-08-03T14:34:06.572Z,23.62
2022-08-03T14:39:03.425Z,24.29
2022-08-03T14:44:01.263Z,25.06
2022-08-03T14:50:32.848Z,24.19
2022-08-03T14:54:16.917Z,24.18
2022-08-03T14:59:15.265Z,23.93
2022-08-03T15:04:12.696Z,23.86
2022-08-03T15:09:23.607Z,24.47
2022-08-03T15:14:22.378Z,24.34
2022-08-03T15:20:00.217Z,24.54
2022-08-03T15:24:44.903Z,24.97
2022-08-03T15:30:07.257Z,24.94
2022-08-03T15:34:59.986Z,24.80
2022-08-03T15:39:59.009Z,24.58
2022-08-03T15:44:57.053Z,23.79
2022-08-03T15:49:53.934Z,23.94
2022-08-03T15:54:51.301Z,24.04
2022-08-03T15:59:48.176Z,24.23
2022-08-03T16:04:44.875Z,24.28
2022-08-03T16:09:43.113Z,23.90
2022-08-03T16:14:51.447Z,24.44
2022-08-03T16:19:49.743Z,23.79
2022-08-03T16:24:46.544Z,24.11
2022-08-03T16:29:44.047Z,24.01
2022-08-03T16:34:41.182Z,24.46
2022-08-03T16:39:38.001Z,24.83
2022-08-03T16:44:36.031Z,24.94
2022-08-03T16:49:54.245Z,24.10
2022-08-03T16:54:52.976Z,24.20
2022-08-03T16:59:51.773Z,24.03
2022-08-03T17:04:49.287Z,23.64
2022-08-03T17:09:46.509Z,23.62
2022-08-03T17:14:43.993Z,24.12
2022-08-03T17:19:41.215Z,24.14
2022-08-03T17:24:45.891Z,24.08
2022-08-03T17:29:45.535Z,24.14
2022-08-03T17:34:43.200Z,23.90
2022-08-03T17:44:57.639Z,24.32
2022-08-03T17:49:54.526Z,24.20
2022-08-03T17:55:51.527Z,23.95
2022-08-03T18:00:35.419Z,24.18
2022-08-03T18:06:11.163Z,24.05
2022-08-03T18:11:03.297Z,24.47
2022-08-03T18:16:07.774Z,24.47
2022-08-03T18:21:09.151Z,24.85
2022-08-03T18:26:07.718Z,24.84
2022-08-03T18:31:10.139Z,25.13
2022-08-03T18:36:08.607Z,25.26
2022-08-03T18:41:12.914Z,25.65
2022-08-03T18:46:23.161Z,25.46
2022-08-03T18:51:28.692Z,25.73
2022-08-03T18:56:36.846Z,26.17
2022-08-03T19:02:00.088Z,26.23
2022-08-03T19:06:59.055Z,26.55
2022-08-03T19:12:13.154Z,26.58
2022-08-03T19:17:14.579Z,26.82
2022-08-03T19:22:19.806Z,26.83
2022-08-03T19:27:16.917Z,26.97
2022-08-03T19:32:16.161Z,27.08
2022-08-03T19:37:14.617Z,27.41
2022-08-03T19:42:20.170Z,27.81
2022-08-03T19:47:26.481Z,27.89
2022-08-03T19:57:46.217Z,28.56
2022-08-03T20:02:47.145Z,28.73
2022-08-03T20:07:48.447Z,28.62
2022-08-03T20:12:45.955Z,28.70
2022-08-03T20:17:57.050Z,28.68
2022-08-03T20:22:57.611Z,29.08
2022-08-03T20:28:06.848Z,29.07
2022-08-03T20:33:10.031Z,29.41
2022-08-03T20:38:08.670Z,29.99
2022-08-03T20:43:05.451Z,30.09
2022-08-03T20:48:03.917Z,30.20
2022-08-03T20:53:02.738Z,30.56
2022-08-03T20:58:02.135Z,30.89
2022-08-03T21:03:00.134Z,31.20
2022-08-03T21:08:05.311Z,31.49
2022-08-03T21:13:03.180Z,28.04
2022-08-03T21:13:22.575Z,31.15
2022-08-03T21:18:20.229Z,30.91
2022-08-03T21:23:40.059Z,30.68
2022-08-03T21:28:38.039Z,30.67
2022-08-03T21:33:35.207Z,30.14
2022-08-03T21:38:32.210Z,30.18
2022-08-03T21:43:28.970Z,30.34
2022-08-03T21:48:26.861Z,30.19
2022-08-03T21:53:25.803Z,30.13
2022-08-03T21:58:47.669Z,30.28
2022-08-03T22:03:53.004Z,30.16
2022-08-03T22:08:52.151Z,30.08
2022-08-03T22:13:48.836Z,30.09
2022-08-03T22:18:45.956Z,29.62
2022-08-03T22:23:46.915Z,30.03
2022-08-03T22:28:43.649Z,30.08
2022-08-03T22:33:40.373Z,29.96
2022-08-03T22:38:37.597Z,30.09
2022-08-03T22:43:35.866Z,30.08
2022-08-03T22:48:33.972Z,30.40
2022-08-03T22:53:31.517Z,32.86
2022-08-03T22:58:28.245Z,33.69
2022-08-03T23:04:00.749Z,33.32
2022-08-03T23:08:45.887Z,32.82
2022-08-03T23:13:46.580Z,32.99
2022-08-03T23:18:47.044Z,33.29
2022-08-03T23:23:44.967Z,35.34
2022-08-03T23:28:45.092Z,36.40
2022-08-03T23:33:44.566Z,39.32
2022-08-03T23:38:42.153Z,39.58
2022-08-03T23:43:51.306Z,40.08
2022-08-03T23:48:50.114Z,39.23
2022-08-03T23:53:51.355Z,38.50
2022-08-03T23:58:52.969Z,38.92
